sensor_id;sensor_type;location;lat;lon;timestamp;P1;durP1;ratioP1;P2;durP2;ratioP2
53644;SDS011;39547;45.554;12.068;2022-07-30T00:02:08;9.63;;;3.05;;
53644;SDS011;39547;45.554;12.068;2022-07-30T00:08:09;11.15;;;3.40;;
53644;SDS011;39547;45.554;12.068;2022-07-30T00:14:11;11.05;;;3.60;;
53644;SDS011;39547;45.554;12.068;2022-07-30T00:20:12;10.90;;;3.60;;
53644;SDS011;39547;45.554;12.068;2022-07-30T00:26:14;11.10;;;4.00;;
53644;SDS011;39547;45.554;12.068;2022-07-30T00:32:15;10.90;;;3.55;;
53644;SDS011;39547;45.554;12.068;2022-07-30T00:38:17;10.52;;;3.58;;
53644;SDS011;39547;45.554;12.068;2022-07-30T00:44:18;11.20;;;3.75;;
53644;SDS011;39547;45.554;12.068;2022-07-30T00:50:20;11.40;;;4.18;;
53644;SDS011;39547;45.554;12.068;2022-07-30T00:56:21;12.73;;;4.30;;
53644;SDS011;39547;45.554;12.068;2022-07-30T01:02:23;11.43;;;3.90;;
53644;SDS011;39547;45.554;12.068;2022-07-30T01:08:24;11.15;;;4.10;;
53644;SDS011;39547;45.554;12.068;2022-07-30T01:14:26;11.85;;;4.60;;
53644;SDS011;39547;45.554;12.068;2022-07-30T01:20:32;11.10;;;3.90;;
53644;SDS011;39547;45.554;12.068;2022-07-30T01:26:41;11.52;;;4.03;;
53644;SDS011;39547;45.554;12.068;2022-07-30T01:32:43;12.07;;;4.53;;
53644;SDS011;39547;45.554;12.068;2022-07-30T01:38:46;11.57;;;4.53;;
53644;SDS011;39547;45.554;12.068;2022-07-30T01:44:50;12.15;;;4.68;;
53644;SDS011;39547;45.554;12.068;2022-07-30T01:50:53;12.30;;;4.57;;
53644;SDS011;39547;45.554;12.068;2022-07-30T01:56:56;12.05;;;4.82;;
53644;SDS011;39547;45.554;12.068;2022-07-30T02:03:00;13.05;;;5.20;;
53644;SDS011;39547;45.554;12.068;2022-07-30T02:09:03;12.93;;;5.32;;
53644;SDS011;39547;45.554;12.068;2022-07-30T02:21:51;13.18;;;5.93;;
53644;SDS011;39547;45.554;12.068;2022-07-30T02:28:05;13.40;;;5.40;;
53644;SDS011;39547;45.554;12.068;2022-07-30T02:34:10;12.32;;;5.18;;
53644;SDS011;39547;45.554;12.068;2022-07-30T02:40:15;12.65;;;5.40;;
53644;SDS011;39547;45.554;12.068;2022-07-30T02:46:19;13.77;;;6.20;;
53644;SDS011;39547;45.554;12.068;2022-07-30T02:52:42;16.30;;;5.72;;
53644;SDS011;39547;45.554;12.068;2022-07-30T02:58:45;12.50;;;4.70;;
53644;SDS011;39547;45.554;12.068;2022-07-30T03:04:48;12.63;;;5.30;;
53644;SDS011;39547;45.554;12.068;2022-07-30T03:10:53;13.27;;;5.60;;
53644;SDS011;39547;45.554;12.068;2022-07-30T03:16:58;13.32;;;6.20;;
53644;SDS011;39547;45.554;12.068;2022-07-30T03:23:02;13.85;;;6.55;;
53644;SDS011;39547;45.554;12.068;2022-07-30T03:29:05;14.05;;;5.93;;
53644;SDS011;39547;45.554;12.068;2022-07-30T03:35:08;14.13;;;6.93;;
53644;SDS011;39547;45.554;12.068;2022-07-30T03:41:11;13.45;;;6.50;;
53644;SDS011;39547;45.554;12.068;2022-07-30T03:47:15;14.43;;;6.38;;
53644;SDS011;39547;45.554;12.068;2022-07-30T03:53:22;13.20;;;5.82;;
53644;SDS011;39547;45.554;12.068;2022-07-30T03:59:43;13.82;;;6.43;;
53644;SDS011;39547;45.554;12.068;2022-07-30T04:05:46;13.88;;;6.47;;
53644;SDS011;39547;45.554;12.068;2022-07-30T04:11:48;14.40;;;6.40;;
53644;SDS011;39547;45.554;12.068;2022-07-30T04:17:55;13.95;;;5.85;;
53644;SDS011;39547;45.554;12.068;2022-07-30T04:24:01;13.82;;;6.43;;
53644;SDS011;39547;45.554;12.068;2022-07-30T04:30:04;15.82;;;7.53;;
53644;SDS011;39547;45.554;12.068;2022-07-30T04:36:29;17.10;;;8.65;;
53644;SDS011;39547;45.554;12.068;2022-07-30T04:42:32;16.13;;;8.27;;
53644;SDS011;39547;45.554;12.068;2022-07-30T04:48:39;16.77;;;8.82;;
53644;SDS011;39547;45.554;12.068;2022-07-30T04:54:49;15.63;;;7.32;;
53644;SDS011;39547;45.554;12.068;2022-07-30T05:00:54;17.35;;;9.60;;
53644;SDS011;39547;45.554;12.068;2022-07-30T05:07:09;21.23;;;13.27;;
53644;SDS011;39547;45.554;12.068;2022-07-30T05:13:14;18.83;;;10.57;;
53644;SDS011;39547;45.554;12.068;2022-07-30T05:19:17;17.45;;;9.35;;
53644;SDS011;39547;45.554;12.068;2022-07-30T05:25:21;17.50;;;9.05;;
53644;SDS011;39547;45.554;12.068;2022-07-30T05:37:33;14.40;;;7.85;;
53644;SDS011;39547;45.554;12.068;2022-07-30T05:43:34;13.90;;;6.78;;
53644;SDS011;39547;45.554;12.068;2022-07-30T05:49:36;15.45;;;7.85;;
53644;SDS011;39547;45.554;12.068;2022-07-30T05:55:42;14.38;;;7.45;;
53644;SDS011;39547;45.554;12.068;2022-07-30T06:02:03;14.85;;;7.05;;
53644;SDS011;39547;45.554;12.068;2022-07-30T06:08:21;15.45;;;8.35;;
53644;SDS011;39547;45.554;12.068;2022-07-30T06:14:23;14.90;;;7.60;;
53644;SDS011;39547;45.554;12.068;2022-07-30T06:20:24;15.88;;;7.30;;
53644;SDS011;39547;45.554;12.068;2022-07-30T06:26:46;13.13;;;5.75;;
53644;SDS011;39547;45.554;12.068;2022-07-30T06:32:48;14.43;;;6.97;;
53644;SDS011;39547;45.554;12.068;2022-07-30T06:38:52;14.15;;;7.03;;
53644;SDS011;39547;45.554;12.068;2022-07-30T06:45:03;14.43;;;7.47;;
53644;SDS011;39547;45.554;12.068;2022-07-30T06:51:25;15.15;;;7.40;;
53644;SDS011;39547;45.554;12.068;2022-07-30T06:57:28;13.57;;;6.60;;
53644;SDS011;39547;45.554;12.068;2022-07-30T07:03:31;14.27;;;6.47;;
53644;SDS011;39547;45.554;12.068;2022-07-30T07:09:32;13.38;;;6.10;;
53644;SDS011;39547;45.554;12.068;2022-07-30T07:16:03;13.82;;;6.28;;
53644;SDS011;39547;45.554;12.068;2022-07-30T07:22:05;14.60;;;6.93;;
53644;SDS011;39547;45.554;12.068;2022-07-30T07:28:07;13.45;;;6.15;;
53644;SDS011;39547;45.554;12.068;2022-07-30T07:34:09;12.73;;;5.20;;
53644;SDS011;39547;45.554;12.068;2022-07-30T07:40:11;12.40;;;5.47;;
53644;SDS011;39547;45.554;12.068;2022-07-30T07:46:16;12.15;;;5.07;;
53644;SDS011;39547;45.554;12.068;2022-07-30T07:52:17;13.55;;;6.30;;
53644;SDS011;39547;45.554;12.068;2022-07-30T07:58:19;14.23;;;6.20;;
53644;SDS011;39547;45.554;12.068;2022-07-30T08:04:21;12.02;;;5.05;;
53644;SDS011;39547;45.554;12.068;2022-07-30T08:10:40;13.88;;;5.88;;
53644;SDS011;39547;45.554;12.068;2022-07-30T08:17:00;13.13;;;5.60;;
53644;SDS011;39547;45.554;12.068;2022-07-30T08:23:28;13.48;;;5.90;;
53644;SDS011;39547;45.554;12.068;2022-07-30T08:29:29;12.25;;;4.80;;
53644;SDS011;39547;45.554;12.068;2022-07-30T08:35:31;12.85;;;4.97;;
53644;SDS011;39547;45.554;12.068;2022-07-30T08:41:34;12.15;;;4.80;;
53644;SDS011;39547;45.554;12.068;2022-07-30T08:53:45;11.85;;;4.60;;
53644;SDS011;39547;45.554;12.068;2022-07-30T08:59:48;12.00;;;4.47;;
53644;SDS011;39547;45.554;12.068;2022-07-30T09:05:54;11.68;;;4.30;;
53644;SDS011;39547;45.554;12.068;2022-07-30T09:11:55;10.60;;;3.80;;
53644;SDS011;39547;45.554;12.068;2022-07-30T09:17:58;10.30;;;3.30;;
53644;SDS011;39547;45.554;12.068;2022-07-30T09:24:09;11.70;;;3.60;;
53644;SDS011;39547;45.554;12.068;2022-07-30T09:37:22;10.80;;;3.90;;
53644;SDS011;39547;45.554;12.068;2022-07-30T09:43:23;10.57;;;3.60;;
53644;SDS011;39547;45.554;12.068;2022-07-30T09:49:30;10.32;;;3.20;;
53644;SDS011;39547;45.554;12.068;2022-07-30T09:55:33;10.70;;;3.20;;
53644;SDS011;39547;45.554;12.068;2022-07-30T10:01:49;10.77;;;3.28;;
53644;SDS011;39547;45.554;12.068;2022-07-30T10:08:13;10.30;;;3.40;;
53644;SDS011;39547;45.554;12.068;2022-07-30T10:14:16;11.10;;;3.20;;
53644;SDS011;39547;45.554;12.068;2022-07-30T10:20:18;9.98;;;3.15;;
53644;SDS011;39547;45.554;12.068;2022-07-30T10:26:50;10.65;;;3.17;;
53644;SDS011;39547;45.554;12.068;2022-07-30T10:33:23;10.40;;;3.33;;
53644;SDS011;39547;45.554;12.068;2022-07-30T10:39:27;10.27;;;2.90;;
53644;SDS011;39547;45.554;12.068;2022-07-30T10:51:50;9.65;;;2.75;;
53644;SDS011;39547;45.554;12.068;2022-07-30T10:58:00;10.40;;;2.80;;
53644;SDS011;39547;45.554;12.068;2022-07-30T11:04:35;9.85;;;2.90;;
53644;SDS011;39547;45.554;12.068;2022-07-30T11:10:34;9.75;;;2.90;;
53644;SDS011;39547;45.554;12.068;2022-07-30T11:17:06;9.65;;;2.80;;
53644;SDS011;39547;45.554;12.068;2022-07-30T11:23:11;9.68;;;2.80;;
53644;SDS011;39547;45.554;12.068;2022-07-30T11:29:38;9.30;;;2.97;;
53644;SDS011;39547;45.554;12.068;2022-07-30T11:35:41;10.03;;;2.87;;
53644;SDS011;39547;45.554;12.068;2022-07-30T11:41:59;10.05;;;2.85;;
53644;SDS011;39547;45.554;12.068;2022-07-30T11:48:23;10.10;;;2.83;;
53644;SDS011;39547;45.554;12.068;2022-07-30T11:54:25;10.00;;;3.00;;
53644;SDS011;39547;45.554;12.068;2022-07-30T12:00:35;9.53;;;2.97;;
53644;SDS011;39547;45.554;12.068;2022-07-30T12:06:44;10.07;;;3.00;;
53644;SDS011;39547;45.554;12.068;2022-07-30T12:12:47;10.15;;;2.90;;
53644;SDS011;39547;45.554;12.068;2022-07-30T12:18:48;9.73;;;2.90;;
53644;SDS011;39547;45.554;12.068;2022-07-30T12:30:53;10.57;;;3.50;;
53644;SDS011;39547;45.554;12.068;2022-07-30T12:37:05;10.60;;;3.47;;
53644;SDS011;39547;45.554;12.068;2022-07-30T12:43:09;11.02;;;3.50;;
53644;SDS011;39547;45.554;12.068;2022-07-30T12:49:11;10.63;;;3.40;;
53644;SDS011;39547;45.554;12.068;2022-07-30T12:55:12;10.07;;;3.40;;
53644;SDS011;39547;45.554;12.068;2022-07-30T13:01:14;11.35;;;3.70;;
53644;SDS011;39547;45.554;12.068;2022-07-30T13:13:17;10.95;;;3.50;;
53644;SDS011;39547;45.554;12.068;2022-07-30T13:19:18;10.57;;;3.47;;
53644;SDS011;39547;45.554;12.068;2022-07-30T13:25:19;10.45;;;3.20;;
53644;SDS011;39547;45.554;12.068;2022-07-30T13:37:22;11.53;;;3.80;;
53644;SDS011;39547;45.554;12.068;2022-07-30T13:49:25;9.80;;;3.03;;
53644;SDS011;39547;45.554;12.068;2022-07-30T13:55:27;10.30;;;3.30;;
53644;SDS011;39547;45.554;12.068;2022-07-30T14:01:28;10.05;;;3.03;;
53644;SDS011;39547;45.554;12.068;2022-07-30T14:07:30;10.40;;;3.10;;
53644;SDS011;39547;45.554;12.068;2022-07-30T14:13:31;9.18;;;2.80;;
53644;SDS011;39547;45.554;12.068;2022-07-30T14:19:33;8.10;;;2.42;;
53644;SDS011;39547;45.554;12.068;2022-07-30T14:25:34;9.55;;;2.50;;
53644;SDS011;39547;45.554;12.068;2022-07-30T14:31:35;7.63;;;2.28;;
53644;SDS011;39547;45.554;12.068;2022-07-30T14:37:37;8.00;;;2.25;;
53644;SDS011;39547;45.554;12.068;2022-07-30T14:43:40;7.78;;;2.10;;
53644;SDS011;39547;45.554;12.068;2022-07-30T14:49:53;8.60;;;2.20;;
53644;SDS011;39547;45.554;12.068;2022-07-30T14:55:54;7.28;;;2.20;;
53644;SDS011;39547;45.554;12.068;2022-07-30T15:01:57;7.93;;;2.10;;
53644;SDS011;39547;45.554;12.068;2022-07-30T15:07:58;6.03;;;2.05;;
53644;SDS011;39547;45.554;12.068;2022-07-30T15:20:01;6.23;;;2.00;;
53644;SDS011;39547;45.554;12.068;2022-07-30T15:26:04;7.07;;;2.10;;
53644;SDS011;39547;45.554;12.068;2022-07-30T15:32:05;8.27;;;2.10;;
53644;SDS011;39547;45.554;12.068;2022-07-30T15:38:07;8.33;;;2.20;;
53644;SDS011;39547;45.554;12.068;2022-07-30T15:44:08;7.00;;;2.10;;
53644;SDS011;39547;45.554;12.068;2022-07-30T15:50:10;9.32;;;2.38;;
53644;SDS011;39547;45.554;12.068;2022-07-30T15:56:11;9.70;;;2.33;;
53644;SDS011;39547;45.554;12.068;2022-07-30T16:02:13;8.73;;;2.30;;
53644;SDS011;39547;45.554;12.068;2022-07-30T16:08:14;9.60;;;2.40;;
53644;SDS011;39547;45.554;12.068;2022-07-30T16:14:16;10.00;;;2.30;;
53644;SDS011;39547;45.554;12.068;2022-07-30T16:20:17;10.07;;;2.40;;
53644;SDS011;39547;45.554;12.068;2022-07-30T16:26:19;8.48;;;2.20;;
53644;SDS011;39547;45.554;12.068;2022-07-30T16:32:21;10.13;;;2.25;;
53644;SDS011;39547;45.554;12.068;2022-07-30T16:38:22;8.38;;;2.30;;
53644;SDS011;39547;45.554;12.068;2022-07-30T16:44:24;8.50;;;2.13;;
53644;SDS011;39547;45.554;12.068;2022-07-30T16:56:28;10.23;;;2.40;;
53644;SDS011;39547;45.554;12.068;2022-07-30T17:02:29;9.13;;;2.30;;
53644;SDS011;39547;45.554;12.068;2022-07-30T17:08:31;7.82;;;2.25;;
53644;SDS011;39547;45.554;12.068;2022-07-30T17:14:33;8.75;;;2.20;;
53644;SDS011;39547;45.554;12.068;2022-07-30T17:20:34;7.28;;;2.10;;
53644;SDS011;39547;45.554;12.068;2022-07-30T17:26:36;8.77;;;2.33;;
53644;SDS011;39547;45.554;12.068;2022-07-30T17:32:40;7.63;;;2.17;;
53644;SDS011;39547;45.554;12.068;2022-07-30T17:38:41;6.90;;;2.22;;
53644;SDS011;39547;45.554;12.068;2022-07-30T17:44:43;9.40;;;2.30;;
53644;SDS011;39547;45.554;12.068;2022-07-30T17:50:44;8.85;;;2.30;;
53644;SDS011;39547;45.554;12.068;2022-07-30T17:56:46;7.90;;;2.20;;
53644;SDS011;39547;45.554;12.068;2022-07-30T18:02:47;8.85;;;2.10;;
53644;SDS011;39547;45.554;12.068;2022-07-30T18:08:49;8.05;;;2.30;;
53644;SDS011;39547;45.554;12.068;2022-07-30T18:14:51;8.90;;;2.33;;
53644;SDS011;39547;45.554;12.068;2022-07-30T18:20:52;7.22;;;2.10;;
53644;SDS011;39547;45.554;12.068;2022-07-30T18:26:54;7.70;;;2.22;;
53644;SDS011;39547;45.554;12.068;2022-07-30T18:32:55;6.93;;;2.10;;
53644;SDS011;39547;45.554;12.068;2022-07-30T18:38:57;7.28;;;2.00;;
53644;SDS011;39547;45.554;12.068;2022-07-30T18:44:58;7.25;;;2.10;;
53644;SDS011;39547;45.554;12.068;2022-07-30T18:51:00;7.22;;;2.15;;
53644;SDS011;39547;45.554;12.068;2022-07-30T18:57:02;7.87;;;2.40;;
53644;SDS011;39547;45.554;12.068;2022-07-30T19:03:04;8.38;;;2.30;;
53644;SDS011;39547;45.554;12.068;2022-07-30T19:09:08;8.50;;;2.33;;
53644;SDS011;39547;45.554;12.068;2022-07-30T19:15:20;8.52;;;2.20;;
53644;SDS011;39547;45.554;12.068;2022-07-30T19:21:21;10.13;;;2.50;;
53644;SDS011;39547;45.554;12.068;2022-07-30T19:27:23;8.88;;;2.50;;
53644;SDS011;39547;45.554;12.068;2022-07-30T19:33:24;9.88;;;3.00;;
53644;SDS011;39547;45.554;12.068;2022-07-30T19:39:26;11.48;;;3.90;;
53644;SDS011;39547;45.554;12.068;2022-07-30T19:45:27;9.90;;;3.00;;
53644;SDS011;39547;45.554;12.068;2022-07-30T19:51:29;9.02;;;2.42;;
53644;SDS011;39547;45.554;12.068;2022-07-30T19:57:31;9.18;;;2.50;;
53644;SDS011;39547;45.554;12.068;2022-07-30T20:03:32;10.07;;;2.70;;
53644;SDS011;39547;45.554;12.068;2022-07-30T20:09:34;9.18;;;2.55;;
53644;SDS011;39547;45.554;12.068;2022-07-30T20:15:35;9.43;;;2.55;;
53644;SDS011;39547;45.554;12.068;2022-07-30T20:21:37;11.13;;;2.70;;
53644;SDS011;39547;45.554;12.068;2022-07-30T20:27:39;9.05;;;2.50;;
53644;SDS011;39547;45.554;12.068;2022-07-30T20:33:41;9.13;;;2.58;;
53644;SDS011;39547;45.554;12.068;2022-07-30T20:39:43;9.25;;;2.50;;
53644;SDS011;39547;45.554;12.068;2022-07-30T20:45:44;10.35;;;2.78;;
53644;SDS011;39547;45.554;12.068;2022-07-30T20:51:46;9.52;;;2.70;;
53644;SDS011;39547;45.554;12.068;2022-07-30T20:57:48;10.15;;;2.80;;
53644;SDS011;39547;45.554;12.068;2022-07-30T21:03:49;10.23;;;2.80;;
53644;SDS011;39547;45.554;12.068;2022-07-30T21:09:51;9.80;;;2.70;;
53644;SDS011;39547;45.554;12.068;2022-07-30T21:15:52;10.77;;;2.80;;
53644;SDS011;39547;45.554;12.068;2022-07-30T21:21:54;9.35;;;2.67;;
53644;SDS011;39547;45.554;12.068;2022-07-30T21:27:55;9.68;;;2.80;;
53644;SDS011;39547;45.554;12.068;2022-07-30T21:33:57;10.60;;;2.83;;
53644;SDS011;39547;45.554;12.068;2022-07-30T21:39:58;9.93;;;2.83;;
53644;SDS011;39547;45.554;12.068;2022-07-30T21:46:00;10.73;;;2.70;;
53644;SDS011;39547;45.554;12.068;2022-07-30T21:52:01;9.48;;;2.70;;
53644;SDS011;39547;45.554;12.068;2022-07-30T21:58:03;9.60;;;2.50;;
53644;SDS011;39547;45.554;12.068;2022-07-30T22:04:04;9.68;;;2.70;;
53644;SDS011;39547;45.554;12.068;2022-07-30T22:10:06;10.55;;;2.78;;
53644;SDS011;39547;45.554;12.068;2022-07-30T22:16:08;10.30;;;2.92;;
53644;SDS011;39547;45.554;12.068;2022-07-30T22:22:09;10.13;;;2.80;;
53644;SDS011;39547;45.554;12.068;2022-07-30T22:28:11;11.38;;;3.15;;
53644;SDS011;39547;45.554;12.068;2022-07-30T22:34:14;11.57;;;3.70;;
53644;SDS011;39547;45.554;12.068;2022-07-30T22:40:16;12.15;;;4.00;;
53644;SDS011;39547;45.554;12.068;2022-07-30T22:46:17;11.70;;;3.50;;
53644;SDS011;39547;45.554;12.068;2022-07-30T22:52:39;11.40;;;3.50;;
53644;SDS011;39547;45.554;12.068;2022-07-30T22:58:41;11.10;;;3.38;;
53644;SDS011;39547;45.554;12.068;2022-07-30T23:04:43;10.70;;;3.40;;
53644;SDS011;39547;45.554;12.068;2022-07-30T23:10:45;11.70;;;3.38;;
53644;SDS011;39547;45.554;12.068;2022-07-30T23:16:47;10.40;;;3.30;;
53644;SDS011;39547;45.554;12.068;2022-07-30T23:22:49;10.52;;;3.40;;
53644;SDS011;39547;45.554;12.068;2022-07-30T23:28:51;10.55;;;3.20;;
53644;SDS011;39547;45.554;12.068;2022-07-30T23:34:52;10.60;;;3.10;;
53644;SDS011;39547;45.554;12.068;2022-07-30T23:40:54;10.25;;;2.92;;
53644;SDS011;39547;45.554;12.068;2022-07-30T23:47:00;10.27;;;3.10;;
53644;SDS011;39547;45.554;12.068;2022-07-30T23:53:02;11.38;;;3.30;;
53644;SDS011;39547;45.554;12.068;2022-07-30T23:59:04;10.52;;;3.47;;
